Pagina principale
METAR-TAF:

METAR-TAF

Aeroporti :

Lleida-Alguaire

Lleida, Spagna

latitudine: 41-43-40N, longitudine: 000-32-09E, altezza: 350 m

Osservazione

Il bollettino è stato emesso 22 minuti fa, alle 22:30 UTC
Vento calmo
Temperature 17°C
Umidità 77%
Pressione 1011 hPa
Visibilità 10 km o più
nessuna nube inferiore a 1500 m e nessun cumulonembo

METAR: LEDA 152230Z AUTO 00000KT CAVOK 17/13 Q1011

Ora: 00:52 (22:52 UTC)


TAF: mancante

Osservazioni e previsioni meteorologiche di più di 4000 aeroporti (messaggi METAR e TAF).

Le stazioni disponibili sono rappresentate dai dischi gialli e rossi sulla carta.

Puntare il mouse per vedere il nome della stazione.

Clicca sopra per visualizzare le osservazioni e previsioni meteorologiche.

Per cambiare la mappa : fare clic sui pulsanti verdi con una croce nera per ingrandire, il pulsante verde con un trattino per diminuire, o sulla freccia verde per le mappe adiacenti.


METAR-TAF: